KRDD

Redding Municipal Airport

Redding, California, USA
KRDD 182324Z 1900/1924 VRB05KT 6SM -RA OVC020 TEMPO 1900/1903 2SM BR OVC008 FM190300 19005KT P6SM -SHRA OVC025 AMD NOT SKED
Issued Valid From Valid To
Jan-18 @ 23:24 UTC
(3 hours ago)
Jan-19 @ 00:00 UTC
(3 hours ago)
Jan-20 @ 00:00 UTC
(in 21 hours)
Jan-19 @ 00:00 to Jan-19 @ 03:00
KRDD 182324Z 1900/1924 VRB05KT 6SM -RA OVC020
Wind Visibility Clouds Conditions
Variable at 5 knots 6 miles
  • Overcast at 2,000' AGL
  • Light Rain
Temporary Jan-19 @ 00:00 to Jan-19 @ 03:00
TEMPO 1900/1903 2SM BR OVC008
Visibility Clouds Conditions
2 miles
  • Overcast at 800' AGL
  • Mist
From Jan-19 @ 03:00 to Jan-20 @ 00:00
FM190300 19005KT P6SM -SHRA OVC025 AMD NOT SKED
Wind Visibility Clouds Conditions
190° at 5 knots Greater than 6 miles
  • Overcast at 2,500' AGL
  • Light Rain
KRDD 182324Z 1900/1924 VRB05KT 6SM -RA OVC020 TEMPO 1900/1903 2SM BR OVC008 FM190300 19005KT P6SM -SHRA OVC025 AMD NOT SKED
Issued Jan-18 @ 23:24 UTC
(3 hours ago)
Valid From Jan-19 @ 00:00 UTC
(3 hours ago)
Valid To Jan-20 @ 00:00 UTC
(in 21 hours)
Jan-19 @ 00:00 - Jan-19 @ 03:00
Wind Visibility
Variable at 5 knots 6 miles
Clouds
  • Overcast at 2,000' AGL
Conditions
  • Light Rain
Temporary Jan-19 @ 00:00 - Jan-19 @ 03:00
Clouds
  • Overcast at 800' AGL
Conditions
  • Mist
From Jan-19 @ 03:00 - Jan-20 @ 00:00
Wind Visibility
190° at 5 knots Greater than 6 miles
Clouds
  • Overcast at 2,500' AGL
Conditions
  • Light Rain